sensor_id;sensor_type;location;lat;lon;timestamp;P1;durP1;ratioP1;P2;durP2;ratioP2
38715;SDS011;24833;49.324;8.694;2022-12-13T00:01:52;16.42;;;8.75;;
38715;SDS011;24833;49.324;8.694;2022-12-13T00:04:21;14.02;;;8.65;;
38715;SDS011;24833;49.324;8.694;2022-12-13T00:06:50;13.13;;;8.07;;
38715;SDS011;24833;49.324;8.694;2022-12-13T00:09:19;15.55;;;9.13;;
38715;SDS011;24833;49.324;8.694;2022-12-13T00:11:48;15.98;;;9.50;;
38715;SDS011;24833;49.324;8.694;2022-12-13T00:14:15;14.05;;;8.65;;
38715;SDS011;24833;49.324;8.694;2022-12-13T00:16:43;15.40;;;9.52;;
38715;SDS011;24833;49.324;8.694;2022-12-13T00:19:12;16.95;;;9.68;;
38715;SDS011;24833;49.324;8.694;2022-12-13T00:21:40;15.57;;;9.75;;
38715;SDS011;24833;49.324;8.694;2022-12-13T00:24:07;14.82;;;9.57;;
38715;SDS011;24833;49.324;8.694;2022-12-13T00:26:34;14.77;;;8.95;;
38715;SDS011;24833;49.324;8.694;2022-12-13T00:29:02;16.98;;;9.73;;
38715;SDS011;24833;49.324;8.694;2022-12-13T00:31:31;17.27;;;9.93;;
38715;SDS011;24833;49.324;8.694;2022-12-13T00:34:19;12.45;;;8.13;;
38715;SDS011;24833;49.324;8.694;2022-12-13T00:36:46;15.48;;;9.73;;
38715;SDS011;24833;49.324;8.694;2022-12-13T00:39:13;15.57;;;9.60;;
38715;SDS011;24833;49.324;8.694;2022-12-13T00:41:42;14.65;;;8.95;;
38715;SDS011;24833;49.324;8.694;2022-12-13T00:44:10;15.23;;;8.52;;
38715;SDS011;24833;49.324;8.694;2022-12-13T00:46:39;14.73;;;9.00;;
38715;SDS011;24833;49.324;8.694;2022-12-13T00:49:08;16.40;;;9.73;;
38715;SDS011;24833;49.324;8.694;2022-12-13T00:51:36;13.98;;;9.25;;
38715;SDS011;24833;49.324;8.694;2022-12-13T00:54:03;14.10;;;8.63;;
38715;SDS011;24833;49.324;8.694;2022-12-13T00:56:31;15.00;;;8.88;;
38715;SDS011;24833;49.324;8.694;2022-12-13T00:58:59;14.20;;;8.10;;
38715;SDS011;24833;49.324;8.694;2022-12-13T01:01:28;16.15;;;9.40;;
38715;SDS011;24833;49.324;8.694;2022-12-13T01:03:58;14.57;;;8.77;;
38715;SDS011;24833;49.324;8.694;2022-12-13T01:06:43;16.02;;;10.00;;
38715;SDS011;24833;49.324;8.694;2022-12-13T01:09:15;16.45;;;9.07;;
38715;SDS011;24833;49.324;8.694;2022-12-13T01:11:46;18.17;;;9.23;;
38715;SDS011;24833;49.324;8.694;2022-12-13T01:14:14;16.20;;;8.65;;
38715;SDS011;24833;49.324;8.694;2022-12-13T01:16:42;13.60;;;8.80;;
38715;SDS011;24833;49.324;8.694;2022-12-13T01:19:09;15.23;;;8.90;;
38715;SDS011;24833;49.324;8.694;2022-12-13T01:21:36;14.80;;;9.35;;
38715;SDS011;24833;49.324;8.694;2022-12-13T01:24:03;16.60;;;9.55;;
38715;SDS011;24833;49.324;8.694;2022-12-13T01:26:32;15.73;;;8.93;;
38715;SDS011;24833;49.324;8.694;2022-12-13T01:28:59;14.93;;;9.85;;
38715;SDS011;24833;49.324;8.694;2022-12-13T01:31:26;17.17;;;9.65;;
38715;SDS011;24833;49.324;8.694;2022-12-13T01:33:54;13.65;;;8.50;;
38715;SDS011;24833;49.324;8.694;2022-12-13T01:36:21;14.18;;;8.95;;
38715;SDS011;24833;49.324;8.694;2022-12-13T01:38:54;16.77;;;9.07;;
38715;SDS011;24833;49.324;8.694;2022-12-13T01:41:24;16.83;;;9.55;;
38715;SDS011;24833;49.324;8.694;2022-12-13T01:43:55;13.18;;;8.38;;
38715;SDS011;24833;49.324;8.694;2022-12-13T01:46:34;14.05;;;8.32;;
38715;SDS011;24833;49.324;8.694;2022-12-13T01:49:05;13.00;;;6.80;;
38715;SDS011;24833;49.324;8.694;2022-12-13T01:51:50;12.60;;;7.60;;
38715;SDS011;24833;49.324;8.694;2022-12-13T01:54:22;16.27;;;8.35;;
38715;SDS011;24833;49.324;8.694;2022-12-13T01:56:59;15.95;;;8.90;;
38715;SDS011;24833;49.324;8.694;2022-12-13T02:01:59;14.13;;;7.43;;
38715;SDS011;24833;49.324;8.694;2022-12-13T02:04:35;13.48;;;7.82;;
38715;SDS011;24833;49.324;8.694;2022-12-13T02:07:14;14.20;;;8.00;;
38715;SDS011;24833;49.324;8.694;2022-12-13T02:09:52;17.42;;;8.50;;
38715;SDS011;24833;49.324;8.694;2022-12-13T02:12:29;15.70;;;8.77;;
38715;SDS011;24833;49.324;8.694;2022-12-13T02:15:03;16.60;;;9.90;;
38715;SDS011;24833;49.324;8.694;2022-12-13T02:20:50;13.35;;;9.07;;
38715;SDS011;24833;49.324;8.694;2022-12-13T02:23:46;19.80;;;10.13;;
38715;SDS011;24833;49.324;8.694;2022-12-13T02:33:08;16.55;;;9.25;;
38715;SDS011;24833;49.324;8.694;2022-12-13T02:39:24;15.85;;;8.65;;
38715;SDS011;24833;49.324;8.694;2022-12-13T02:41:58;16.20;;;9.30;;
38715;SDS011;24833;49.324;8.694;2022-12-13T02:44:48;16.73;;;9.05;;
38715;SDS011;24833;49.324;8.694;2022-12-13T02:47:45;14.70;;;9.23;;
38715;SDS011;24833;49.324;8.694;2022-12-13T02:50:17;16.27;;;9.65;;
38715;SDS011;24833;49.324;8.694;2022-12-13T02:52:45;16.05;;;9.60;;
38715;SDS011;24833;49.324;8.694;2022-12-13T02:55:14;19.65;;;10.73;;
38715;SDS011;24833;49.324;8.694;2022-12-13T02:57:43;19.75;;;10.50;;
38715;SDS011;24833;49.324;8.694;2022-12-13T03:00:15;17.55;;;9.80;;
38715;SDS011;24833;49.324;8.694;2022-12-13T03:11:48;14.93;;;8.55;;
38715;SDS011;24833;49.324;8.694;2022-12-13T03:15:13;18.45;;;8.88;;
38715;SDS011;24833;49.324;8.694;2022-12-13T03:17:55;13.60;;;7.90;;
38715;SDS011;24833;49.324;8.694;2022-12-13T03:20:29;12.75;;;8.55;;
38715;SDS011;24833;49.324;8.694;2022-12-13T03:22:57;16.02;;;9.90;;
38715;SDS011;24833;49.324;8.694;2022-12-13T03:25:29;13.15;;;8.10;;
38715;SDS011;24833;49.324;8.694;2022-12-13T03:27:59;16.40;;;8.95;;
38715;SDS011;24833;49.324;8.694;2022-12-13T03:30:29;16.38;;;9.45;;
38715;SDS011;24833;49.324;8.694;2022-12-13T03:32:58;12.63;;;8.33;;
38715;SDS011;24833;49.324;8.694;2022-12-13T03:35:26;13.60;;;8.40;;
38715;SDS011;24833;49.324;8.694;2022-12-13T03:38:11;15.70;;;9.73;;
38715;SDS011;24833;49.324;8.694;2022-12-13T03:40:49;14.27;;;9.15;;
38715;SDS011;24833;49.324;8.694;2022-12-13T03:43:20;16.70;;;8.98;;
38715;SDS011;24833;49.324;8.694;2022-12-13T03:45:49;15.20;;;8.93;;
38715;SDS011;24833;49.324;8.694;2022-12-13T03:48:18;16.73;;;8.73;;
38715;SDS011;24833;49.324;8.694;2022-12-13T03:50:49;15.88;;;9.07;;
38715;SDS011;24833;49.324;8.694;2022-12-13T03:53:18;17.73;;;8.50;;
38715;SDS011;24833;49.324;8.694;2022-12-13T03:58:31;13.07;;;7.55;;
38715;SDS011;24833;49.324;8.694;2022-12-13T04:01:12;11.50;;;7.32;;
38715;SDS011;24833;49.324;8.694;2022-12-13T04:03:43;12.20;;;7.70;;
38715;SDS011;24833;49.324;8.694;2022-12-13T04:06:12;14.70;;;8.27;;
38715;SDS011;24833;49.324;8.694;2022-12-13T04:08:48;15.45;;;8.07;;
38715;SDS011;24833;49.324;8.694;2022-12-13T04:11:16;14.93;;;8.15;;
38715;SDS011;24833;49.324;8.694;2022-12-13T04:14:09;19.55;;;9.98;;
38715;SDS011;24833;49.324;8.694;2022-12-13T04:16:37;15.02;;;8.65;;
38715;SDS011;24833;49.324;8.694;2022-12-13T04:19:04;13.63;;;8.32;;
38715;SDS011;24833;49.324;8.694;2022-12-13T04:21:31;16.05;;;9.05;;
38715;SDS011;24833;49.324;8.694;2022-12-13T04:23:59;13.77;;;8.90;;
38715;SDS011;24833;49.324;8.694;2022-12-13T04:26:27;16.25;;;9.55;;
38715;SDS011;24833;49.324;8.694;2022-12-13T04:28:55;16.23;;;9.52;;
38715;SDS011;24833;49.324;8.694;2022-12-13T04:31:22;15.95;;;9.32;;
38715;SDS011;24833;49.324;8.694;2022-12-13T04:33:50;17.92;;;9.90;;
38715;SDS011;24833;49.324;8.694;2022-12-13T04:36:16;17.15;;;9.45;;
38715;SDS011;24833;49.324;8.694;2022-12-13T04:38:58;13.88;;;8.50;;
38715;SDS011;24833;49.324;8.694;2022-12-13T04:41:48;17.27;;;10.75;;
38715;SDS011;24833;49.324;8.694;2022-12-13T04:44:17;19.17;;;10.07;;
38715;SDS011;24833;49.324;8.694;2022-12-13T04:46:55;15.35;;;9.38;;
38715;SDS011;24833;49.324;8.694;2022-12-13T04:49:27;15.98;;;9.45;;
38715;SDS011;24833;49.324;8.694;2022-12-13T04:51:55;15.02;;;8.90;;
38715;SDS011;24833;49.324;8.694;2022-12-13T04:54:27;14.55;;;8.48;;
38715;SDS011;24833;49.324;8.694;2022-12-13T04:57:03;15.25;;;9.30;;
38715;SDS011;24833;49.324;8.694;2022-12-13T04:59:32;14.30;;;8.55;;
38715;SDS011;24833;49.324;8.694;2022-12-13T05:02:00;13.30;;;8.48;;
38715;SDS011;24833;49.324;8.694;2022-12-13T05:04:27;13.52;;;8.30;;
38715;SDS011;24833;49.324;8.694;2022-12-13T05:09:26;13.60;;;8.02;;
38715;SDS011;24833;49.324;8.694;2022-12-13T05:11:53;13.77;;;7.65;;
38715;SDS011;24833;49.324;8.694;2022-12-13T05:14:28;17.60;;;9.35;;
38715;SDS011;24833;49.324;8.694;2022-12-13T05:16:57;15.18;;;8.80;;
38715;SDS011;24833;49.324;8.694;2022-12-13T05:19:25;16.85;;;9.43;;
38715;SDS011;24833;49.324;8.694;2022-12-13T05:21:56;15.77;;;9.45;;
38715;SDS011;24833;49.324;8.694;2022-12-13T05:24:28;12.90;;;8.65;;
38715;SDS011;24833;49.324;8.694;2022-12-13T05:26:57;13.93;;;8.10;;
38715;SDS011;24833;49.324;8.694;2022-12-13T05:29:24;14.15;;;8.57;;
38715;SDS011;24833;49.324;8.694;2022-12-13T05:31:53;17.77;;;8.82;;
38715;SDS011;24833;49.324;8.694;2022-12-13T05:34:20;14.43;;;8.52;;
38715;SDS011;24833;49.324;8.694;2022-12-13T05:36:47;14.77;;;8.60;;
38715;SDS011;24833;49.324;8.694;2022-12-13T05:39:14;16.60;;;9.07;;
38715;SDS011;24833;49.324;8.694;2022-12-13T05:41:55;17.80;;;8.98;;
38715;SDS011;24833;49.324;8.694;2022-12-13T05:44:28;16.10;;;9.18;;
38715;SDS011;24833;49.324;8.694;2022-12-13T05:46:57;15.73;;;9.20;;
38715;SDS011;24833;49.324;8.694;2022-12-13T05:49:28;14.93;;;8.38;;
38715;SDS011;24833;49.324;8.694;2022-12-13T05:51:56;14.70;;;8.57;;
38715;SDS011;24833;49.324;8.694;2022-12-13T05:54:23;12.82;;;7.75;;
38715;SDS011;24833;49.324;8.694;2022-12-13T05:56:50;15.57;;;8.52;;
38715;SDS011;24833;49.324;8.694;2022-12-13T05:59:17;12.90;;;8.23;;
38715;SDS011;24833;49.324;8.694;2022-12-13T06:01:44;12.90;;;8.35;;
38715;SDS011;24833;49.324;8.694;2022-12-13T06:04:14;13.75;;;8.25;;
38715;SDS011;24833;49.324;8.694;2022-12-13T06:06:49;12.80;;;7.43;;
38715;SDS011;24833;49.324;8.694;2022-12-13T06:09:17;12.45;;;7.20;;
38715;SDS011;24833;49.324;8.694;2022-12-13T06:11:45;14.48;;;8.10;;
38715;SDS011;24833;49.324;8.694;2022-12-13T06:14:13;11.30;;;7.63;;
38715;SDS011;24833;49.324;8.694;2022-12-13T06:16:48;11.85;;;7.22;;
38715;SDS011;24833;49.324;8.694;2022-12-13T06:19:21;11.95;;;7.75;;
38715;SDS011;24833;49.324;8.694;2022-12-13T06:21:49;14.35;;;7.97;;
38715;SDS011;24833;49.324;8.694;2022-12-13T06:24:19;12.60;;;7.35;;
38715;SDS011;24833;49.324;8.694;2022-12-13T06:26:48;11.35;;;6.95;;
38715;SDS011;24833;49.324;8.694;2022-12-13T06:29:16;12.45;;;8.05;;
38715;SDS011;24833;49.324;8.694;2022-12-13T06:31:55;10.55;;;7.03;;
38715;SDS011;24833;49.324;8.694;2022-12-13T06:34:29;13.80;;;7.65;;
38715;SDS011;24833;49.324;8.694;2022-12-13T06:39:28;10.02;;;6.18;;
38715;SDS011;24833;49.324;8.694;2022-12-13T06:42:05;11.02;;;5.90;;
38715;SDS011;24833;49.324;8.694;2022-12-13T06:44:47;9.70;;;6.75;;
38715;SDS011;24833;49.324;8.694;2022-12-13T06:47:21;11.77;;;7.00;;
38715;SDS011;24833;49.324;8.694;2022-12-13T06:49:57;12.32;;;7.03;;
38715;SDS011;24833;49.324;8.694;2022-12-13T06:52:31;12.35;;;7.30;;
38715;SDS011;24833;49.324;8.694;2022-12-13T06:54:58;11.80;;;6.82;;
38715;SDS011;24833;49.324;8.694;2022-12-13T06:57:25;11.65;;;7.53;;
38715;SDS011;24833;49.324;8.694;2022-12-13T06:59:52;15.77;;;8.48;;
38715;SDS011;24833;49.324;8.694;2022-12-13T07:02:19;11.80;;;7.18;;
38715;SDS011;24833;49.324;8.694;2022-12-13T07:04:51;15.73;;;8.00;;
38715;SDS011;24833;49.324;8.694;2022-12-13T07:07:19;11.82;;;7.90;;
38715;SDS011;24833;49.324;8.694;2022-12-13T07:09:46;13.77;;;8.68;;
38715;SDS011;24833;49.324;8.694;2022-12-13T07:12:13;14.95;;;8.70;;
38715;SDS011;24833;49.324;8.694;2022-12-13T07:14:40;11.35;;;7.78;;
38715;SDS011;24833;49.324;8.694;2022-12-13T07:17:07;11.98;;;7.38;;
38715;SDS011;24833;49.324;8.694;2022-12-13T07:19:36;12.60;;;7.88;;
38715;SDS011;24833;49.324;8.694;2022-12-13T07:22:03;13.75;;;7.97;;
38715;SDS011;24833;49.324;8.694;2022-12-13T07:24:31;11.50;;;7.35;;
38715;SDS011;24833;49.324;8.694;2022-12-13T07:27:00;13.32;;;7.68;;
38715;SDS011;24833;49.324;8.694;2022-12-13T07:29:28;12.43;;;7.63;;
38715;SDS011;24833;49.324;8.694;2022-12-13T07:31:55;9.38;;;6.65;;
38715;SDS011;24833;49.324;8.694;2022-12-13T07:34:27;12.20;;;7.85;;
38715;SDS011;24833;49.324;8.694;2022-12-13T07:36:55;11.07;;;7.25;;
38715;SDS011;24833;49.324;8.694;2022-12-13T07:39:23;11.55;;;6.93;;
38715;SDS011;24833;49.324;8.694;2022-12-13T07:41:53;10.63;;;6.85;;
38715;SDS011;24833;49.324;8.694;2022-12-13T07:44:21;16.52;;;7.63;;
38715;SDS011;24833;49.324;8.694;2022-12-13T07:49:19;10.73;;;5.95;;
38715;SDS011;24833;49.324;8.694;2022-12-13T07:51:46;15.60;;;6.95;;
38715;SDS011;24833;49.324;8.694;2022-12-13T07:54:13;11.90;;;7.25;;
38715;SDS011;24833;49.324;8.694;2022-12-13T07:56:40;13.50;;;8.27;;
38715;SDS011;24833;49.324;8.694;2022-12-13T07:59:08;12.27;;;7.45;;
38715;SDS011;24833;49.324;8.694;2022-12-13T08:01:35;13.10;;;7.68;;
38715;SDS011;24833;49.324;8.694;2022-12-13T08:04:03;12.45;;;7.75;;
38715;SDS011;24833;49.324;8.694;2022-12-13T08:06:34;12.23;;;8.00;;
38715;SDS011;24833;49.324;8.694;2022-12-13T08:09:03;13.30;;;8.38;;
38715;SDS011;24833;49.324;8.694;2022-12-13T08:11:31;10.57;;;6.70;;
38715;SDS011;24833;49.324;8.694;2022-12-13T08:13:58;14.38;;;7.88;;
38715;SDS011;24833;49.324;8.694;2022-12-13T08:16:25;12.93;;;7.90;;
38715;SDS011;24833;49.324;8.694;2022-12-13T08:18:55;14.35;;;9.18;;
38715;SDS011;24833;49.324;8.694;2022-12-13T08:21:36;12.30;;;8.23;;
38715;SDS011;24833;49.324;8.694;2022-12-13T08:24:23;13.07;;;7.78;;
38715;SDS011;24833;49.324;8.694;2022-12-13T08:26:53;16.25;;;8.93;;
38715;SDS011;24833;49.324;8.694;2022-12-13T08:29:27;14.05;;;7.90;;
38715;SDS011;24833;49.324;8.694;2022-12-13T08:32:01;11.02;;;7.00;;
38715;SDS011;24833;49.324;8.694;2022-12-13T08:34:38;11.93;;;7.78;;
38715;SDS011;24833;49.324;8.694;2022-12-13T08:37:06;14.48;;;9.63;;
38715;SDS011;24833;49.324;8.694;2022-12-13T08:39:34;11.80;;;8.27;;
38715;SDS011;24833;49.324;8.694;2022-12-13T08:42:21;14.55;;;8.48;;
38715;SDS011;24833;49.324;8.694;2022-12-13T08:44:51;14.63;;;8.82;;
38715;SDS011;24833;49.324;8.694;2022-12-13T08:47:19;15.73;;;8.32;;
38715;SDS011;24833;49.324;8.694;2022-12-13T08:49:56;16.17;;;8.68;;
38715;SDS011;24833;49.324;8.694;2022-12-13T08:52:31;14.02;;;8.82;;
38715;SDS011;24833;49.324;8.694;2022-12-13T08:55:06;13.95;;;9.75;;
38715;SDS011;24833;49.324;8.694;2022-12-13T08:57:38;12.30;;;8.40;;
38715;SDS011;24833;49.324;8.694;2022-12-13T09:00:09;13.38;;;8.82;;
38715;SDS011;24833;49.324;8.694;2022-12-13T09:02:40;17.55;;;8.93;;
38715;SDS011;24833;49.324;8.694;2022-12-13T09:05:08;13.95;;;8.20;;
38715;SDS011;24833;49.324;8.694;2022-12-13T09:07:36;12.57;;;8.15;;
38715;SDS011;24833;49.324;8.694;2022-12-13T09:10:08;12.30;;;8.23;;
38715;SDS011;24833;49.324;8.694;2022-12-13T09:12:56;13.00;;;7.90;;
38715;SDS011;24833;49.324;8.694;2022-12-13T09:15:28;11.98;;;7.30;;
38715;SDS011;24833;49.324;8.694;2022-12-13T09:18:00;15.15;;;8.32;;
38715;SDS011;24833;49.324;8.694;2022-12-13T09:20:31;9.60;;;7.43;;
38715;SDS011;24833;49.324;8.694;2022-12-13T09:23:06;12.40;;;7.93;;
38715;SDS011;24833;49.324;8.694;2022-12-13T09:25:53;10.23;;;7.28;;
38715;SDS011;24833;49.324;8.694;2022-12-13T09:28:31;12.15;;;7.85;;
38715;SDS011;24833;49.324;8.694;2022-12-13T09:31:00;15.13;;;8.50;;
38715;SDS011;24833;49.324;8.694;2022-12-13T09:33:39;11.85;;;8.43;;
38715;SDS011;24833;49.324;8.694;2022-12-13T09:36:09;17.55;;;8.75;;
38715;SDS011;24833;49.324;8.694;2022-12-13T09:38:39;12.63;;;7.97;;
38715;SDS011;24833;49.324;8.694;2022-12-13T09:44:11;8.60;;;5.35;;
38715;SDS011;24833;49.324;8.694;2022-12-13T09:46:59;12.93;;;8.10;;
38715;SDS011;24833;49.324;8.694;2022-12-13T09:49:43;15.77;;;8.40;;
38715;SDS011;24833;49.324;8.694;2022-12-13T09:52:18;10.57;;;7.10;;
38715;SDS011;24833;49.324;8.694;2022-12-13T09:54:54;10.25;;;7.45;;
38715;SDS011;24833;49.324;8.694;2022-12-13T09:57:27;14.40;;;8.35;;
38715;SDS011;24833;49.324;8.694;2022-12-13T10:00:06;12.43;;;7.55;;
38715;SDS011;24833;49.324;8.694;2022-12-13T10:02:45;14.13;;;8.35;;
38715;SDS011;24833;49.324;8.694;2022-12-13T10:05:32;15.05;;;8.10;;
38715;SDS011;24833;49.324;8.694;2022-12-13T10:08:11;10.77;;;6.53;;
38715;SDS011;24833;49.324;8.694;2022-12-13T10:10:50;10.68;;;7.00;;
38715;SDS011;24833;49.324;8.694;2022-12-13T10:13:26;10.52;;;7.10;;
38715;SDS011;24833;49.324;8.694;2022-12-13T10:16:15;11.82;;;7.40;;
38715;SDS011;24833;49.324;8.694;2022-12-13T10:19:02;12.32;;;7.93;;
38715;SDS011;24833;49.324;8.694;2022-12-13T10:21:55;11.52;;;7.40;;
38715;SDS011;24833;49.324;8.694;2022-12-13T10:24:28;13.95;;;7.60;;
38715;SDS011;24833;49.324;8.694;2022-12-13T10:27:27;12.20;;;8.32;;
38715;SDS011;24833;49.324;8.694;2022-12-13T10:35:29;12.30;;;6.82;;
38715;SDS011;24833;49.324;8.694;2022-12-13T10:38:21;13.52;;;7.97;;
38715;SDS011;24833;49.324;8.694;2022-12-13T10:40:57;12.20;;;6.97;;
38715;SDS011;24833;49.324;8.694;2022-12-13T10:43:27;12.52;;;7.50;;
38715;SDS011;24833;49.324;8.694;2022-12-13T10:45:57;13.10;;;8.10;;
38715;SDS011;24833;49.324;8.694;2022-12-13T10:51:17;10.52;;;7.25;;
38715;SDS011;24833;49.324;8.694;2022-12-13T10:53:48;9.75;;;6.50;;
38715;SDS011;24833;49.324;8.694;2022-12-13T10:56:31;12.98;;;8.45;;
38715;SDS011;24833;49.324;8.694;2022-12-13T11:11:00;12.20;;;7.80;;
38715;SDS011;24833;49.324;8.694;2022-12-13T11:18:52;14.70;;;8.88;;
38715;SDS011;24833;49.324;8.694;2022-12-13T11:21:23;15.63;;;8.52;;
38715;SDS011;24833;49.324;8.694;2022-12-13T11:23:54;11.43;;;7.93;;
38715;SDS011;24833;49.324;8.694;2022-12-13T11:26:34;12.88;;;7.95;;
38715;SDS011;24833;49.324;8.694;2022-12-13T11:32:10;10.80;;;6.60;;
38715;SDS011;24833;49.324;8.694;2022-12-13T11:35:20;10.50;;;6.93;;
38715;SDS011;24833;49.324;8.694;2022-12-13T11:38:23;10.10;;;6.22;;
38715;SDS011;24833;49.324;8.694;2022-12-13T11:41:33;12.27;;;7.00;;
38715;SDS011;24833;49.324;8.694;2022-12-13T11:44:57;10.15;;;6.65;;
38715;SDS011;24833;49.324;8.694;2022-12-13T11:47:20;9.60;;;6.18;;
38715;SDS011;24833;49.324;8.694;2022-12-13T11:50:18;13.07;;;6.72;;
38715;SDS011;24833;49.324;8.694;2022-12-13T11:53:03;12.68;;;6.57;;
38715;SDS011;24833;49.324;8.694;2022-12-13T11:56:07;8.90;;;6.50;;
38715;SDS011;24833;49.324;8.694;2022-12-13T12:01:53;9.93;;;6.25;;
38715;SDS011;24833;49.324;8.694;2022-12-13T12:12:57;9.15;;;6.13;;
38715;SDS011;24833;49.324;8.694;2022-12-13T12:18:37;11.35;;;6.95;;
38715;SDS011;24833;49.324;8.694;2022-12-13T12:21:23;11.07;;;7.35;;
38715;SDS011;24833;49.324;8.694;2022-12-13T12:30:18;10.27;;;6.72;;
38715;SDS011;24833;49.324;8.694;2022-12-13T12:33:09;8.90;;;5.97;;
38715;SDS011;24833;49.324;8.694;2022-12-13T12:42:37;8.15;;;5.45;;
38715;SDS011;24833;49.324;8.694;2022-12-13T12:48:46;12.27;;;6.70;;
38715;SDS011;24833;49.324;8.694;2022-12-13T12:51:46;13.02;;;7.65;;
38715;SDS011;24833;49.324;8.694;2022-12-13T12:55:15;11.50;;;6.65;;
38715;SDS011;24833;49.324;8.694;2022-12-13T13:03:51;9.77;;;5.90;;
38715;SDS011;24833;49.324;8.694;2022-12-13T13:06:34;10.52;;;6.97;;
38715;SDS011;24833;49.324;8.694;2022-12-13T13:09:16;11.30;;;6.28;;
38715;SDS011;24833;49.324;8.694;2022-12-13T13:11:50;11.07;;;6.68;;
38715;SDS011;24833;49.324;8.694;2022-12-13T13:16:53;10.95;;;6.20;;
38715;SDS011;24833;49.324;8.694;2022-12-13T13:21:57;10.20;;;6.60;;
38715;SDS011;24833;49.324;8.694;2022-12-13T13:24:31;10.35;;;6.85;;
38715;SDS011;24833;49.324;8.694;2022-12-13T13:29:36;9.70;;;6.15;;
38715;SDS011;24833;49.324;8.694;2022-12-13T13:51:34;7.85;;;5.78;;
38715;SDS011;24833;49.324;8.694;2022-12-13T14:04:41;10.80;;;6.25;;
38715;SDS011;24833;49.324;8.694;2022-12-13T14:11:06;8.27;;;5.75;;
38715;SDS011;24833;49.324;8.694;2022-12-13T14:14:24;9.75;;;6.28;;
38715;SDS011;24833;49.324;8.694;2022-12-13T14:29:39;7.75;;;5.40;;
38715;SDS011;24833;49.324;8.694;2022-12-13T14:37:32;8.52;;;5.32;;
38715;SDS011;24833;49.324;8.694;2022-12-13T14:40:21;5.45;;;4.07;;
38715;SDS011;24833;49.324;8.694;2022-12-13T14:42:54;7.32;;;5.45;;
38715;SDS011;24833;49.324;8.694;2022-12-13T14:45:22;9.85;;;5.85;;
38715;SDS011;24833;49.324;8.694;2022-12-13T14:47:59;10.32;;;6.53;;
38715;SDS011;24833;49.324;8.694;2022-12-13T14:50:32;10.10;;;6.05;;
38715;SDS011;24833;49.324;8.694;2022-12-13T14:53:00;11.25;;;6.15;;
38715;SDS011;24833;49.324;8.694;2022-12-13T14:58:02;8.43;;;6.07;;
38715;SDS011;24833;49.324;8.694;2022-12-13T15:00:42;10.13;;;6.55;;
38715;SDS011;24833;49.324;8.694;2022-12-13T15:03:20;10.43;;;6.68;;
38715;SDS011;24833;49.324;8.694;2022-12-13T15:05:56;8.98;;;6.15;;
38715;SDS011;24833;49.324;8.694;2022-12-13T15:08:27;10.25;;;6.80;;
38715;SDS011;24833;49.324;8.694;2022-12-13T15:11:02;10.70;;;6.70;;
38715;SDS011;24833;49.324;8.694;2022-12-13T15:13:38;10.77;;;7.10;;
38715;SDS011;24833;49.324;8.694;2022-12-13T15:16:19;10.77;;;6.55;;
38715;SDS011;24833;49.324;8.694;2022-12-13T15:19:06;10.65;;;7.25;;
38715;SDS011;24833;49.324;8.694;2022-12-13T15:22:01;10.10;;;6.55;;
38715;SDS011;24833;49.324;8.694;2022-12-13T15:24:43;11.35;;;6.93;;
38715;SDS011;24833;49.324;8.694;2022-12-13T15:27:43;12.15;;;7.90;;
38715;SDS011;24833;49.324;8.694;2022-12-13T15:30:15;11.00;;;7.25;;
38715;SDS011;24833;49.324;8.694;2022-12-13T15:33:01;10.80;;;7.00;;
38715;SDS011;24833;49.324;8.694;2022-12-13T15:41:26;12.77;;;7.55;;
38715;SDS011;24833;49.324;8.694;2022-12-13T15:44:01;14.50;;;7.22;;
38715;SDS011;24833;49.324;8.694;2022-12-13T15:46:42;12.25;;;7.88;;
38715;SDS011;24833;49.324;8.694;2022-12-13T15:49:31;14.52;;;8.40;;
38715;SDS011;24833;49.324;8.694;2022-12-13T15:52:05;12.52;;;7.97;;
38715;SDS011;24833;49.324;8.694;2022-12-13T15:54:53;10.48;;;6.90;;
38715;SDS011;24833;49.324;8.694;2022-12-13T15:57:25;13.52;;;7.65;;
38715;SDS011;24833;49.324;8.694;2022-12-13T16:00:06;11.40;;;7.32;;
38715;SDS011;24833;49.324;8.694;2022-12-13T16:02:50;13.02;;;7.85;;
38715;SDS011;24833;49.324;8.694;2022-12-13T16:05:35;12.18;;;7.45;;
38715;SDS011;24833;49.324;8.694;2022-12-13T16:08:16;15.57;;;8.57;;
38715;SDS011;24833;49.324;8.694;2022-12-13T16:10:57;11.05;;;7.45;;
38715;SDS011;24833;49.324;8.694;2022-12-13T16:13:29;13.50;;;9.20;;
38715;SDS011;24833;49.324;8.694;2022-12-13T16:15:59;14.00;;;7.65;;
38715;SDS011;24833;49.324;8.694;2022-12-13T16:18:53;14.27;;;8.35;;
38715;SDS011;24833;49.324;8.694;2022-12-13T16:21:25;13.23;;;8.48;;
38715;SDS011;24833;49.324;8.694;2022-12-13T16:23:54;10.65;;;7.18;;
38715;SDS011;24833;49.324;8.694;2022-12-13T16:26:24;12.55;;;7.70;;
38715;SDS011;24833;49.324;8.694;2022-12-13T16:28:54;16.23;;;10.32;;
38715;SDS011;24833;49.324;8.694;2022-12-13T16:31:26;13.68;;;8.95;;
38715;SDS011;24833;49.324;8.694;2022-12-13T16:34:01;13.75;;;8.52;;
38715;SDS011;24833;49.324;8.694;2022-12-13T16:36:29;12.98;;;8.18;;
38715;SDS011;24833;49.324;8.694;2022-12-13T16:38:56;12.88;;;7.57;;
38715;SDS011;24833;49.324;8.694;2022-12-13T16:41:23;12.70;;;7.93;;
38715;SDS011;24833;49.324;8.694;2022-12-13T16:43:52;14.95;;;10.07;;
38715;SDS011;24833;49.324;8.694;2022-12-13T16:46:26;14.52;;;9.02;;
38715;SDS011;24833;49.324;8.694;2022-12-13T16:49:18;16.42;;;10.27;;
38715;SDS011;24833;49.324;8.694;2022-12-13T16:51:47;16.42;;;9.55;;
38715;SDS011;24833;49.324;8.694;2022-12-13T16:54:15;12.95;;;7.90;;
38715;SDS011;24833;49.324;8.694;2022-12-13T16:56:44;16.25;;;8.93;;
38715;SDS011;24833;49.324;8.694;2022-12-13T16:59:15;15.25;;;9.45;;
38715;SDS011;24833;49.324;8.694;2022-12-13T17:01:44;11.82;;;7.63;;
38715;SDS011;24833;49.324;8.694;2022-12-13T17:04:12;10.85;;;7.35;;
38715;SDS011;24833;49.324;8.694;2022-12-13T17:06:47;12.88;;;8.20;;
38715;SDS011;24833;49.324;8.694;2022-12-13T17:09:16;12.38;;;8.38;;
38715;SDS011;24833;49.324;8.694;2022-12-13T17:11:44;12.55;;;8.35;;
38715;SDS011;24833;49.324;8.694;2022-12-13T17:14:11;12.73;;;8.77;;
38715;SDS011;24833;49.324;8.694;2022-12-13T17:16:38;16.55;;;9.25;;
38715;SDS011;24833;49.324;8.694;2022-12-13T17:19:05;13.05;;;7.93;;
38715;SDS011;24833;49.324;8.694;2022-12-13T17:21:32;12.43;;;7.97;;
38715;SDS011;24833;49.324;8.694;2022-12-13T17:24:00;14.70;;;9.07;;
38715;SDS011;24833;49.324;8.694;2022-12-13T17:26:28;15.50;;;8.65;;
38715;SDS011;24833;49.324;8.694;2022-12-13T17:28:55;11.88;;;8.45;;
38715;SDS011;24833;49.324;8.694;2022-12-13T17:31:22;12.93;;;8.23;;
38715;SDS011;24833;49.324;8.694;2022-12-13T17:33:49;12.00;;;8.35;;
38715;SDS011;24833;49.324;8.694;2022-12-13T17:36:17;16.55;;;9.95;;
38715;SDS011;24833;49.324;8.694;2022-12-13T17:38:45;16.80;;;9.43;;
38715;SDS011;24833;49.324;8.694;2022-12-13T17:41:13;15.60;;;9.68;;
38715;SDS011;24833;49.324;8.694;2022-12-13T17:43:41;15.07;;;8.88;;
38715;SDS011;24833;49.324;8.694;2022-12-13T17:46:13;14.45;;;8.35;;
38715;SDS011;24833;49.324;8.694;2022-12-13T17:48:43;14.27;;;8.93;;
38715;SDS011;24833;49.324;8.694;2022-12-13T17:51:11;14.25;;;8.20;;
38715;SDS011;24833;49.324;8.694;2022-12-13T17:53:39;13.18;;;7.57;;
38715;SDS011;24833;49.324;8.694;2022-12-13T17:56:09;11.85;;;7.05;;
38715;SDS011;24833;49.324;8.694;2022-12-13T17:58:41;14.00;;;8.55;;
38715;SDS011;24833;49.324;8.694;2022-12-13T18:06:07;14.10;;;7.05;;
38715;SDS011;24833;49.324;8.694;2022-12-13T18:08:35;16.15;;;8.35;;
38715;SDS011;24833;49.324;8.694;2022-12-13T18:11:04;17.85;;;9.73;;
38715;SDS011;24833;49.324;8.694;2022-12-13T18:13:53;14.00;;;8.75;;